sensor_id;sensor_type;location;lat;lon;timestamp;P1;durP1;ratioP1;P2;durP2;ratioP2
78787;SDS011;68131;52.508;5.502;2023-07-02T00:02:22;4.05;;;1.90;;
78787;SDS011;68131;52.508;5.502;2023-07-02T00:04:54;5.70;;;1.65;;
78787;SDS011;68131;52.508;5.502;2023-07-02T00:07:23;4.45;;;2.22;;
78787;SDS011;68131;52.508;5.502;2023-07-02T00:09:52;5.60;;;2.13;;
78787;SDS011;68131;52.508;5.502;2023-07-02T00:12:21;7.40;;;2.00;;
78787;SDS011;68131;52.508;5.502;2023-07-02T00:14:52;6.25;;;2.10;;
78787;SDS011;68131;52.508;5.502;2023-07-02T00:17:24;7.07;;;2.10;;
78787;SDS011;68131;52.508;5.502;2023-07-02T00:19:57;4.15;;;2.03;;
78787;SDS011;68131;52.508;5.502;2023-07-02T00:22:31;4.28;;;2.17;;
78787;SDS011;68131;52.508;5.502;2023-07-02T00:25:02;5.45;;;1.98;;
78787;SDS011;68131;52.508;5.502;2023-07-02T00:27:31;4.45;;;2.22;;
78787;SDS011;68131;52.508;5.502;2023-07-02T00:30:00;6.80;;;2.67;;
78787;SDS011;68131;52.508;5.502;2023-07-02T00:32:29;7.38;;;2.53;;
78787;SDS011;68131;52.508;5.502;2023-07-02T00:35:01;3.17;;;2.15;;
78787;SDS011;68131;52.508;5.502;2023-07-02T00:37:31;9.90;;;2.70;;
78787;SDS011;68131;52.508;5.502;2023-07-02T00:40:00;5.57;;;2.30;;
78787;SDS011;68131;52.508;5.502;2023-07-02T00:42:29;7.50;;;3.08;;
78787;SDS011;68131;52.508;5.502;2023-07-02T00:44:58;5.53;;;2.67;;
78787;SDS011;68131;52.508;5.502;2023-07-02T00:47:28;4.75;;;2.20;;
78787;SDS011;68131;52.508;5.502;2023-07-02T00:50:01;6.65;;;2.35;;
78787;SDS011;68131;52.508;5.502;2023-07-02T00:52:33;7.35;;;2.17;;
78787;SDS011;68131;52.508;5.502;2023-07-02T00:55:02;5.53;;;1.80;;
78787;SDS011;68131;52.508;5.502;2023-07-02T00:57:35;5.85;;;2.45;;
78787;SDS011;68131;52.508;5.502;2023-07-02T01:00:07;11.75;;;2.58;;
78787;SDS011;68131;52.508;5.502;2023-07-02T01:02:39;6.00;;;2.88;;
78787;SDS011;68131;52.508;5.502;2023-07-02T01:05:16;5.25;;;2.35;;
78787;SDS011;68131;52.508;5.502;2023-07-02T01:07:47;5.47;;;2.67;;
78787;SDS011;68131;52.508;5.502;2023-07-02T01:10:17;7.38;;;2.00;;
78787;SDS011;68131;52.508;5.502;2023-07-02T01:12:46;6.70;;;2.60;;
78787;SDS011;68131;52.508;5.502;2023-07-02T01:15:16;9.40;;;2.50;;
78787;SDS011;68131;52.508;5.502;2023-07-02T01:17:49;6.25;;;1.88;;
78787;SDS011;68131;52.508;5.502;2023-07-02T01:20:22;7.55;;;2.78;;
78787;SDS011;68131;52.508;5.502;2023-07-02T01:22:56;3.72;;;1.70;;
78787;SDS011;68131;52.508;5.502;2023-07-02T01:25:28;3.42;;;2.13;;
78787;SDS011;68131;52.508;5.502;2023-07-02T01:28:02;6.97;;;2.13;;
78787;SDS011;68131;52.508;5.502;2023-07-02T01:30:33;7.40;;;3.17;;
78787;SDS011;68131;52.508;5.502;2023-07-02T01:33:04;6.53;;;2.55;;
78787;SDS011;68131;52.508;5.502;2023-07-02T01:35:36;8.63;;;2.80;;
78787;SDS011;68131;52.508;5.502;2023-07-02T01:38:05;9.73;;;2.28;;
78787;SDS011;68131;52.508;5.502;2023-07-02T01:40:35;6.43;;;2.85;;
78787;SDS011;68131;52.508;5.502;2023-07-02T01:43:07;3.28;;;2.13;;
78787;SDS011;68131;52.508;5.502;2023-07-02T01:45:40;3.65;;;1.98;;
78787;SDS011;68131;52.508;5.502;2023-07-02T01:48:10;9.02;;;2.90;;
78787;SDS011;68131;52.508;5.502;2023-07-02T01:50:45;5.32;;;2.80;;
78787;SDS011;68131;52.508;5.502;2023-07-02T01:53:17;7.40;;;2.90;;
78787;SDS011;68131;52.508;5.502;2023-07-02T01:55:46;7.25;;;1.98;;
78787;SDS011;68131;52.508;5.502;2023-07-02T01:58:18;5.80;;;3.08;;
78787;SDS011;68131;52.508;5.502;2023-07-02T02:00:47;6.40;;;2.47;;
78787;SDS011;68131;52.508;5.502;2023-07-02T02:03:17;6.40;;;1.85;;
78787;SDS011;68131;52.508;5.502;2023-07-02T02:05:49;5.40;;;2.30;;
78787;SDS011;68131;52.508;5.502;2023-07-02T02:08:18;4.18;;;2.00;;
78787;SDS011;68131;52.508;5.502;2023-07-02T02:10:47;9.07;;;3.10;;
78787;SDS011;68131;52.508;5.502;2023-07-02T02:13:16;6.55;;;2.22;;
78787;SDS011;68131;52.508;5.502;2023-07-02T02:15:46;8.60;;;2.60;;
78787;SDS011;68131;52.508;5.502;2023-07-02T02:18:15;7.00;;;1.98;;
78787;SDS011;68131;52.508;5.502;2023-07-02T02:20:45;6.50;;;2.72;;
78787;SDS011;68131;52.508;5.502;2023-07-02T02:23:17;7.20;;;2.78;;
78787;SDS011;68131;52.508;5.502;2023-07-02T02:25:46;6.20;;;2.13;;
78787;SDS011;68131;52.508;5.502;2023-07-02T02:28:15;5.68;;;1.42;;
78787;SDS011;68131;52.508;5.502;2023-07-02T02:30:45;6.65;;;2.53;;
78787;SDS011;68131;52.508;5.502;2023-07-02T02:33:14;5.13;;;2.25;;
78787;SDS011;68131;52.508;5.502;2023-07-02T02:35:44;6.95;;;2.90;;
78787;SDS011;68131;52.508;5.502;2023-07-02T02:38:17;6.75;;;2.08;;
78787;SDS011;68131;52.508;5.502;2023-07-02T02:40:46;4.65;;;2.08;;
78787;SDS011;68131;52.508;5.502;2023-07-02T02:43:18;4.25;;;2.40;;
78787;SDS011;68131;52.508;5.502;2023-07-02T02:45:49;6.85;;;2.58;;
78787;SDS011;68131;52.508;5.502;2023-07-02T02:48:18;5.85;;;2.92;;
78787;SDS011;68131;52.508;5.502;2023-07-02T02:50:50;10.98;;;2.72;;
78787;SDS011;68131;52.508;5.502;2023-07-02T02:53:22;3.85;;;1.90;;
78787;SDS011;68131;52.508;5.502;2023-07-02T02:55:51;4.50;;;2.25;;
78787;SDS011;68131;52.508;5.502;2023-07-02T02:58:20;6.25;;;2.28;;
78787;SDS011;68131;52.508;5.502;2023-07-02T03:00:49;6.18;;;2.20;;
78787;SDS011;68131;52.508;5.502;2023-07-02T03:03:21;10.90;;;2.65;;
78787;SDS011;68131;52.508;5.502;2023-07-02T03:05:52;5.60;;;2.28;;
78787;SDS011;68131;52.508;5.502;2023-07-02T03:08:27;6.40;;;2.15;;
78787;SDS011;68131;52.508;5.502;2023-07-02T03:10:57;4.32;;;2.50;;
78787;SDS011;68131;52.508;5.502;2023-07-02T03:13:29;3.58;;;1.90;;
78787;SDS011;68131;52.508;5.502;2023-07-02T03:15:58;5.18;;;2.20;;
78787;SDS011;68131;52.508;5.502;2023-07-02T03:18:27;3.97;;;1.98;;
78787;SDS011;68131;52.508;5.502;2023-07-02T03:20:57;6.93;;;2.33;;
78787;SDS011;68131;52.508;5.502;2023-07-02T03:23:30;4.00;;;2.58;;
78787;SDS011;68131;52.508;5.502;2023-07-02T03:25:59;7.78;;;2.42;;
78787;SDS011;68131;52.508;5.502;2023-07-02T03:28:28;5.90;;;2.65;;
78787;SDS011;68131;52.508;5.502;2023-07-02T03:30:59;7.53;;;2.50;;
78787;SDS011;68131;52.508;5.502;2023-07-02T03:33:28;7.60;;;2.47;;
78787;SDS011;68131;52.508;5.502;2023-07-02T03:35:58;9.00;;;2.90;;
78787;SDS011;68131;52.508;5.502;2023-07-02T03:38:31;7.63;;;2.35;;
78787;SDS011;68131;52.508;5.502;2023-07-02T03:41:00;5.30;;;2.88;;
78787;SDS011;68131;52.508;5.502;2023-07-02T03:43:29;7.13;;;2.42;;
78787;SDS011;68131;52.508;5.502;2023-07-02T03:45:58;4.93;;;2.28;;
78787;SDS011;68131;52.508;5.502;2023-07-02T03:48:30;8.43;;;2.28;;
78787;SDS011;68131;52.508;5.502;2023-07-02T03:51:01;12.73;;;3.17;;
78787;SDS011;68131;52.508;5.502;2023-07-02T03:53:33;6.22;;;3.20;;
78787;SDS011;68131;52.508;5.502;2023-07-02T03:56:02;6.28;;;2.20;;
78787;SDS011;68131;52.508;5.502;2023-07-02T03:58:31;8.65;;;2.20;;
78787;SDS011;68131;52.508;5.502;2023-07-02T04:01:01;3.35;;;1.73;;
78787;SDS011;68131;52.508;5.502;2023-07-02T04:03:30;9.95;;;2.75;;
78787;SDS011;68131;52.508;5.502;2023-07-02T04:05:59;6.93;;;2.95;;
78787;SDS011;68131;52.508;5.502;2023-07-02T04:08:33;7.50;;;2.83;;
78787;SDS011;68131;52.508;5.502;2023-07-02T04:11:03;6.13;;;2.60;;
78787;SDS011;68131;52.508;5.502;2023-07-02T04:13:32;8.20;;;2.08;;
78787;SDS011;68131;52.508;5.502;2023-07-02T04:16:04;6.20;;;2.83;;
78787;SDS011;68131;52.508;5.502;2023-07-02T04:18:33;4.18;;;2.50;;
78787;SDS011;68131;52.508;5.502;2023-07-02T04:21:02;2.97;;;1.67;;
78787;SDS011;68131;52.508;5.502;2023-07-02T04:23:34;8.13;;;2.50;;
78787;SDS011;68131;52.508;5.502;2023-07-02T04:26:06;8.27;;;2.97;;
78787;SDS011;68131;52.508;5.502;2023-07-02T04:28:38;9.13;;;3.15;;
78787;SDS011;68131;52.508;5.502;2023-07-02T04:31:07;5.82;;;2.70;;
78787;SDS011;68131;52.508;5.502;2023-07-02T04:33:39;10.57;;;1.85;;
78787;SDS011;68131;52.508;5.502;2023-07-02T04:36:08;5.53;;;2.65;;
78787;SDS011;68131;52.508;5.502;2023-07-02T04:38:43;8.15;;;3.00;;
78787;SDS011;68131;52.508;5.502;2023-07-02T04:41:12;8.52;;;2.35;;
78787;SDS011;68131;52.508;5.502;2023-07-02T04:43:41;6.20;;;3.10;;
78787;SDS011;68131;52.508;5.502;2023-07-02T04:46:11;5.07;;;2.83;;
78787;SDS011;68131;52.508;5.502;2023-07-02T04:48:40;4.28;;;2.50;;
78787;SDS011;68131;52.508;5.502;2023-07-02T04:51:10;4.32;;;2.20;;
78787;SDS011;68131;52.508;5.502;2023-07-02T04:53:44;5.28;;;2.05;;
78787;SDS011;68131;52.508;5.502;2023-07-02T04:56:21;7.68;;;2.65;;
78787;SDS011;68131;52.508;5.502;2023-07-02T04:58:50;5.43;;;1.70;;
78787;SDS011;68131;52.508;5.502;2023-07-02T05:01:20;3.90;;;1.90;;
78787;SDS011;68131;52.508;5.502;2023-07-02T05:03:49;4.60;;;2.33;;
78787;SDS011;68131;52.508;5.502;2023-07-02T05:06:21;4.55;;;2.30;;
78787;SDS011;68131;52.508;5.502;2023-07-02T05:08:52;5.97;;;2.38;;
78787;SDS011;68131;52.508;5.502;2023-07-02T05:11:22;5.90;;;2.72;;
78787;SDS011;68131;52.508;5.502;2023-07-02T05:13:51;7.50;;;2.42;;
78787;SDS011;68131;52.508;5.502;2023-07-02T05:16:22;6.03;;;2.30;;
78787;SDS011;68131;52.508;5.502;2023-07-02T05:18:51;13.05;;;3.65;;
78787;SDS011;68131;52.508;5.502;2023-07-02T05:21:20;7.85;;;2.47;;
78787;SDS011;68131;52.508;5.502;2023-07-02T05:23:52;6.35;;;2.10;;
78787;SDS011;68131;52.508;5.502;2023-07-02T05:26:25;5.30;;;1.90;;
78787;SDS011;68131;52.508;5.502;2023-07-02T05:28:54;5.55;;;2.28;;
78787;SDS011;68131;52.508;5.502;2023-07-02T05:31:23;8.35;;;1.98;;
78787;SDS011;68131;52.508;5.502;2023-07-02T05:33:55;6.90;;;1.92;;
78787;SDS011;68131;52.508;5.502;2023-07-02T05:36:24;8.75;;;2.70;;
78787;SDS011;68131;52.508;5.502;2023-07-02T05:38:56;6.45;;;2.42;;
78787;SDS011;68131;52.508;5.502;2023-07-02T05:41:25;4.30;;;2.15;;
78787;SDS011;68131;52.508;5.502;2023-07-02T05:43:56;4.85;;;2.08;;
78787;SDS011;68131;52.508;5.502;2023-07-02T05:46:25;2.92;;;1.77;;
78787;SDS011;68131;52.508;5.502;2023-07-02T05:48:54;5.65;;;2.15;;
78787;SDS011;68131;52.508;5.502;2023-07-02T05:51:25;5.57;;;2.13;;
78787;SDS011;68131;52.508;5.502;2023-07-02T05:53:57;2.90;;;1.60;;
78787;SDS011;68131;52.508;5.502;2023-07-02T05:56:26;5.38;;;2.15;;
78787;SDS011;68131;52.508;5.502;2023-07-02T05:58:55;5.18;;;1.80;;
78787;SDS011;68131;52.508;5.502;2023-07-02T06:01:25;7.28;;;2.00;;
78787;SDS011;68131;52.508;5.502;2023-07-02T06:03:54;4.00;;;1.88;;
78787;SDS011;68131;52.508;5.502;2023-07-02T06:06:23;3.90;;;1.88;;
78787;SDS011;68131;52.508;5.502;2023-07-02T06:08:52;3.90;;;1.65;;
78787;SDS011;68131;52.508;5.502;2023-07-02T06:11:24;4.50;;;1.95;;
78787;SDS011;68131;52.508;5.502;2023-07-02T06:13:56;5.55;;;1.85;;
78787;SDS011;68131;52.508;5.502;2023-07-02T06:16:25;7.13;;;2.13;;
78787;SDS011;68131;52.508;5.502;2023-07-02T06:18:55;5.28;;;1.90;;
78787;SDS011;68131;52.508;5.502;2023-07-02T06:21:24;7.72;;;2.40;;
78787;SDS011;68131;52.508;5.502;2023-07-02T06:23:55;3.22;;;1.77;;
78787;SDS011;68131;52.508;5.502;2023-07-02T06:26:30;4.57;;;1.45;;
78787;SDS011;68131;52.508;5.502;2023-07-02T06:29:00;5.25;;;1.98;;
78787;SDS011;68131;52.508;5.502;2023-07-02T06:31:30;4.38;;;1.80;;
78787;SDS011;68131;52.508;5.502;2023-07-02T06:33:59;5.70;;;1.98;;
78787;SDS011;68131;52.508;5.502;2023-07-02T06:36:28;5.00;;;2.30;;
78787;SDS011;68131;52.508;5.502;2023-07-02T06:38:57;11.43;;;1.90;;
78787;SDS011;68131;52.508;5.502;2023-07-02T06:41:26;4.45;;;1.30;;
78787;SDS011;68131;52.508;5.502;2023-07-02T06:43:58;3.45;;;1.33;;
78787;SDS011;68131;52.508;5.502;2023-07-02T06:46:27;6.65;;;2.13;;
78787;SDS011;68131;52.508;5.502;2023-07-02T06:48:57;4.45;;;1.50;;
78787;SDS011;68131;52.508;5.502;2023-07-02T06:51:26;5.55;;;1.77;;
78787;SDS011;68131;52.508;5.502;2023-07-02T06:53:58;4.40;;;1.30;;
78787;SDS011;68131;52.508;5.502;2023-07-02T06:56:30;5.10;;;2.17;;
78787;SDS011;68131;52.508;5.502;2023-07-02T06:58:59;3.25;;;1.35;;
78787;SDS011;68131;52.508;5.502;2023-07-02T07:01:31;3.40;;;1.60;;
78787;SDS011;68131;52.508;5.502;2023-07-02T07:04:02;7.97;;;1.48;;
78787;SDS011;68131;52.508;5.502;2023-07-02T07:06:34;3.90;;;2.00;;
78787;SDS011;68131;52.508;5.502;2023-07-02T07:09:03;3.13;;;1.45;;
78787;SDS011;68131;52.508;5.502;2023-07-02T07:11:34;4.25;;;1.92;;
78787;SDS011;68131;52.508;5.502;2023-07-02T07:14:05;4.43;;;1.70;;
78787;SDS011;68131;52.508;5.502;2023-07-02T07:16:34;5.32;;;2.08;;
78787;SDS011;68131;52.508;5.502;2023-07-02T07:19:04;8.77;;;2.50;;
78787;SDS011;68131;52.508;5.502;2023-07-02T07:21:33;7.65;;;1.90;;
78787;SDS011;68131;52.508;5.502;2023-07-02T07:24:02;4.20;;;1.95;;
78787;SDS011;68131;52.508;5.502;2023-07-02T07:26:35;6.60;;;1.90;;
78787;SDS011;68131;52.508;5.502;2023-07-02T07:29:04;4.35;;;1.60;;
78787;SDS011;68131;52.508;5.502;2023-07-02T07:31:34;4.50;;;1.25;;
78787;SDS011;68131;52.508;5.502;2023-07-02T07:34:03;2.38;;;1.95;;
78787;SDS011;68131;52.508;5.502;2023-07-02T07:36:34;4.25;;;1.83;;
78787;SDS011;68131;52.508;5.502;2023-07-02T07:39:05;5.93;;;1.60;;
78787;SDS011;68131;52.508;5.502;2023-07-02T07:41:36;4.53;;;1.55;;
78787;SDS011;68131;52.508;5.502;2023-07-02T07:44:05;5.47;;;1.92;;
78787;SDS011;68131;52.508;5.502;2023-07-02T07:46:38;3.28;;;1.50;;
78787;SDS011;68131;52.508;5.502;2023-07-02T07:49:08;3.67;;;1.50;;
78787;SDS011;68131;52.508;5.502;2023-07-02T07:51:37;3.30;;;1.60;;
78787;SDS011;68131;52.508;5.502;2023-07-02T07:54:06;4.75;;;1.70;;
78787;SDS011;68131;52.508;5.502;2023-07-02T07:56:38;5.57;;;1.85;;
78787;SDS011;68131;52.508;5.502;2023-07-02T07:59:08;2.38;;;1.40;;
78787;SDS011;68131;52.508;5.502;2023-07-02T08:01:38;2.50;;;1.63;;
78787;SDS011;68131;52.508;5.502;2023-07-02T08:04:08;4.50;;;1.58;;
78787;SDS011;68131;52.508;5.502;2023-07-02T08:06:37;4.60;;;1.30;;
78787;SDS011;68131;52.508;5.502;2023-07-02T08:09:06;4.65;;;1.38;;
78787;SDS011;68131;52.508;5.502;2023-07-02T08:11:38;3.08;;;1.52;;
78787;SDS011;68131;52.508;5.502;2023-07-02T08:14:08;3.58;;;1.55;;
78787;SDS011;68131;52.508;5.502;2023-07-02T08:16:37;3.10;;;1.48;;
78787;SDS011;68131;52.508;5.502;2023-07-02T08:19:06;2.95;;;1.30;;
78787;SDS011;68131;52.508;5.502;2023-07-02T08:21:38;4.75;;;1.90;;
78787;SDS011;68131;52.508;5.502;2023-07-02T08:24:07;3.55;;;1.55;;
78787;SDS011;68131;52.508;5.502;2023-07-02T08:26:39;5.28;;;2.00;;
78787;SDS011;68131;52.508;5.502;2023-07-02T08:29:10;2.83;;;1.30;;
78787;SDS011;68131;52.508;5.502;2023-07-02T08:31:40;5.00;;;1.95;;
78787;SDS011;68131;52.508;5.502;2023-07-02T08:34:09;5.03;;;1.50;;
78787;SDS011;68131;52.508;5.502;2023-07-02T08:36:38;5.25;;;1.98;;
78787;SDS011;68131;52.508;5.502;2023-07-02T08:39:09;4.45;;;1.75;;
78787;SDS011;68131;52.508;5.502;2023-07-02T08:41:46;3.45;;;1.88;;
78787;SDS011;68131;52.508;5.502;2023-07-02T08:44:19;4.05;;;1.70;;
78787;SDS011;68131;52.508;5.502;2023-07-02T08:46:49;5.97;;;2.10;;
78787;SDS011;68131;52.508;5.502;2023-07-02T08:49:22;3.58;;;1.55;;
78787;SDS011;68131;52.508;5.502;2023-07-02T08:51:51;5.05;;;1.80;;
78787;SDS011;68131;52.508;5.502;2023-07-02T08:54:20;3.97;;;1.95;;
78787;SDS011;68131;52.508;5.502;2023-07-02T08:56:53;4.30;;;1.35;;
78787;SDS011;68131;52.508;5.502;2023-07-02T08:59:23;5.63;;;1.65;;
78787;SDS011;68131;52.508;5.502;2023-07-02T09:01:52;2.53;;;1.40;;
78787;SDS011;68131;52.508;5.502;2023-07-02T09:04:22;4.05;;;1.60;;
78787;SDS011;68131;52.508;5.502;2023-07-02T09:07:02;2.97;;;1.13;;
78787;SDS011;68131;52.508;5.502;2023-07-02T09:09:32;3.08;;;1.25;;
78787;SDS011;68131;52.508;5.502;2023-07-02T09:12:24;3.72;;;1.27;;
78787;SDS011;68131;52.508;5.502;2023-07-02T09:14:54;4.88;;;1.48;;
78787;SDS011;68131;52.508;5.502;2023-07-02T09:17:28;5.15;;;1.40;;
78787;SDS011;68131;52.508;5.502;2023-07-02T09:19:59;3.30;;;1.27;;
78787;SDS011;68131;52.508;5.502;2023-07-02T09:22:30;3.70;;;1.20;;
78787;SDS011;68131;52.508;5.502;2023-07-02T09:25:00;2.03;;;1.10;;
78787;SDS011;68131;52.508;5.502;2023-07-02T09:27:36;2.45;;;1.13;;
78787;SDS011;68131;52.508;5.502;2023-07-02T09:30:07;3.33;;;1.35;;
78787;SDS011;68131;52.508;5.502;2023-07-02T09:32:39;4.22;;;1.10;;
78787;SDS011;68131;52.508;5.502;2023-07-02T09:35:09;4.05;;;1.45;;
78787;SDS011;68131;52.508;5.502;2023-07-02T09:37:38;2.90;;;1.23;;
78787;SDS011;68131;52.508;5.502;2023-07-02T09:40:10;2.80;;;1.30;;
78787;SDS011;68131;52.508;5.502;2023-07-02T09:42:44;3.33;;;1.05;;
78787;SDS011;68131;52.508;5.502;2023-07-02T09:45:18;2.00;;;0.95;;
78787;SDS011;68131;52.508;5.502;2023-07-02T09:47:47;3.53;;;1.70;;
78787;SDS011;68131;52.508;5.502;2023-07-02T09:50:22;2.72;;;1.20;;
78787;SDS011;68131;52.508;5.502;2023-07-02T09:52:52;2.22;;;1.50;;
78787;SDS011;68131;52.508;5.502;2023-07-02T09:55:22;4.45;;;1.73;;
78787;SDS011;68131;52.508;5.502;2023-07-02T09:57:54;2.63;;;1.40;;
78787;SDS011;68131;52.508;5.502;2023-07-02T10:00:23;3.80;;;1.27;;
78787;SDS011;68131;52.508;5.502;2023-07-02T10:02:52;4.03;;;1.42;;
78787;SDS011;68131;52.508;5.502;2023-07-02T10:05:25;2.72;;;1.42;;
78787;SDS011;68131;52.508;5.502;2023-07-02T10:07:55;1.55;;;1.10;;
78787;SDS011;68131;52.508;5.502;2023-07-02T10:10:28;3.83;;;1.33;;
78787;SDS011;68131;52.508;5.502;2023-07-02T10:13:00;4.72;;;1.60;;
78787;SDS011;68131;52.508;5.502;2023-07-02T10:15:29;4.97;;;1.50;;
78787;SDS011;68131;52.508;5.502;2023-07-02T10:18:03;3.00;;;1.05;;
78787;SDS011;68131;52.508;5.502;2023-07-02T10:20:33;2.85;;;1.10;;
78787;SDS011;68131;52.508;5.502;2023-07-02T10:23:04;3.58;;;1.50;;
78787;SDS011;68131;52.508;5.502;2023-07-02T10:25:35;2.50;;;1.00;;
78787;SDS011;68131;52.508;5.502;2023-07-02T10:28:18;5.75;;;1.55;;
78787;SDS011;68131;52.508;5.502;2023-07-02T10:30:50;4.90;;;1.60;;
78787;SDS011;68131;52.508;5.502;2023-07-02T10:33:21;2.25;;;0.73;;
78787;SDS011;68131;52.508;5.502;2023-07-02T10:35:50;3.78;;;1.38;;
78787;SDS011;68131;52.508;5.502;2023-07-02T10:41:05;1.73;;;1.10;;
78787;SDS011;68131;52.508;5.502;2023-07-02T10:43:37;2.72;;;1.10;;
78787;SDS011;68131;52.508;5.502;2023-07-02T10:46:06;3.05;;;1.85;;
78787;SDS011;68131;52.508;5.502;2023-07-02T10:48:35;4.00;;;1.33;;
78787;SDS011;68131;52.508;5.502;2023-07-02T10:51:10;2.08;;;1.25;;
78787;SDS011;68131;52.508;5.502;2023-07-02T10:53:40;1.80;;;0.90;;
78787;SDS011;68131;52.508;5.502;2023-07-02T10:56:15;2.80;;;0.95;;
78787;SDS011;68131;52.508;5.502;2023-07-02T10:58:47;4.35;;;1.10;;
78787;SDS011;68131;52.508;5.502;2023-07-02T11:01:21;4.43;;;1.45;;
78787;SDS011;68131;52.508;5.502;2023-07-02T11:03:58;4.75;;;1.10;;
78787;SDS011;68131;52.508;5.502;2023-07-02T11:06:28;3.92;;;1.45;;
78787;SDS011;68131;52.508;5.502;2023-07-02T11:08:59;3.00;;;0.93;;
78787;SDS011;68131;52.508;5.502;2023-07-02T11:11:31;3.00;;;0.85;;
78787;SDS011;68131;52.508;5.502;2023-07-02T11:14:06;1.70;;;0.93;;
78787;SDS011;68131;52.508;5.502;2023-07-02T11:16:35;2.47;;;0.93;;
78787;SDS011;68131;52.508;5.502;2023-07-02T11:19:08;2.70;;;1.25;;
78787;SDS011;68131;52.508;5.502;2023-07-02T11:21:49;2.45;;;1.25;;
78787;SDS011;68131;52.508;5.502;2023-07-02T11:24:26;6.47;;;1.58;;
78787;SDS011;68131;52.508;5.502;2023-07-02T11:26:57;3.42;;;1.13;;
78787;SDS011;68131;52.508;5.502;2023-07-02T11:29:30;4.35;;;1.33;;
78787;SDS011;68131;52.508;5.502;2023-07-02T11:32:07;3.55;;;1.30;;
78787;SDS011;68131;52.508;5.502;2023-07-02T11:34:37;3.38;;;1.10;;
78787;SDS011;68131;52.508;5.502;2023-07-02T11:37:08;4.03;;;1.25;;
78787;SDS011;68131;52.508;5.502;2023-07-02T11:39:37;2.13;;;0.90;;
78787;SDS011;68131;52.508;5.502;2023-07-02T11:42:07;3.97;;;1.20;;
78787;SDS011;68131;52.508;5.502;2023-07-02T11:44:38;2.08;;;1.17;;
78787;SDS011;68131;52.508;5.502;2023-07-02T11:47:13;2.03;;;1.20;;
78787;SDS011;68131;52.508;5.502;2023-07-02T11:49:45;3.00;;;1.30;;
78787;SDS011;68131;52.508;5.502;2023-07-02T11:52:14;2.05;;;1.33;;
78787;SDS011;68131;52.508;5.502;2023-07-02T11:54:46;3.40;;;1.83;;
78787;SDS011;68131;52.508;5.502;2023-07-02T11:57:15;4.03;;;1.40;;
78787;SDS011;68131;52.508;5.502;2023-07-02T11:59:47;2.80;;;1.48;;
78787;SDS011;68131;52.508;5.502;2023-07-02T12:02:18;2.75;;;1.40;;
78787;SDS011;68131;52.508;5.502;2023-07-02T12:07:20;2.90;;;1.40;;
78787;SDS011;68131;52.508;5.502;2023-07-02T12:09:50;5.32;;;1.50;;
78787;SDS011;68131;52.508;5.502;2023-07-02T12:12:20;2.45;;;1.38;;
78787;SDS011;68131;52.508;5.502;2023-07-02T12:14:51;3.40;;;1.48;;
78787;SDS011;68131;52.508;5.502;2023-07-02T12:17:20;3.45;;;1.42;;
78787;SDS011;68131;52.508;5.502;2023-07-02T12:19:50;2.15;;;1.23;;
78787;SDS011;68131;52.508;5.502;2023-07-02T12:22:19;3.47;;;1.25;;
78787;SDS011;68131;52.508;5.502;2023-07-02T12:24:49;2.50;;;1.40;;
78787;SDS011;68131;52.508;5.502;2023-07-02T12:27:21;5.85;;;1.20;;
78787;SDS011;68131;52.508;5.502;2023-07-02T12:29:55;3.88;;;1.20;;
78787;SDS011;68131;52.508;5.502;2023-07-02T12:32:24;5.25;;;1.73;;
78787;SDS011;68131;52.508;5.502;2023-07-02T12:34:56;2.90;;;1.30;;
78787;SDS011;68131;52.508;5.502;2023-07-02T12:37:25;2.45;;;1.38;;
78787;SDS011;68131;52.508;5.502;2023-07-02T12:39:54;2.10;;;0.98;;
78787;SDS011;68131;52.508;5.502;2023-07-02T12:42:23;3.17;;;1.05;;
78787;SDS011;68131;52.508;5.502;2023-07-02T12:44:55;2.13;;;1.33;;
78787;SDS011;68131;52.508;5.502;2023-07-02T12:47:24;1.90;;;1.17;;
78787;SDS011;68131;52.508;5.502;2023-07-02T12:49:53;2.67;;;1.05;;
78787;SDS011;68131;52.508;5.502;2023-07-02T12:52:22;2.90;;;1.50;;
78787;SDS011;68131;52.508;5.502;2023-07-02T12:54:52;2.17;;;1.05;;
78787;SDS011;68131;52.508;5.502;2023-07-02T12:57:21;4.47;;;1.50;;
78787;SDS011;68131;52.508;5.502;2023-07-02T12:59:52;2.20;;;1.15;;
78787;SDS011;68131;52.508;5.502;2023-07-02T13:02:24;3.67;;;1.10;;
78787;SDS011;68131;52.508;5.502;2023-07-02T13:04:53;2.60;;;1.40;;
78787;SDS011;68131;52.508;5.502;2023-07-02T13:07:22;2.72;;;1.00;;
78787;SDS011;68131;52.508;5.502;2023-07-02T13:09:51;3.00;;;1.25;;
78787;SDS011;68131;52.508;5.502;2023-07-02T13:12:21;6.15;;;1.25;;
78787;SDS011;68131;52.508;5.502;2023-07-02T13:14:50;3.25;;;1.23;;
78787;SDS011;68131;52.508;5.502;2023-07-02T13:17:22;1.77;;;0.85;;
78787;SDS011;68131;52.508;5.502;2023-07-02T13:19:52;3.42;;;1.00;;
78787;SDS011;68131;52.508;5.502;2023-07-02T13:22:22;1.73;;;0.93;;
78787;SDS011;68131;52.508;5.502;2023-07-02T13:24:51;3.45;;;1.15;;
78787;SDS011;68131;52.508;5.502;2023-07-02T13:27:20;4.45;;;1.05;;
78787;SDS011;68131;52.508;5.502;2023-07-02T13:29:49;3.25;;;1.40;;
78787;SDS011;68131;52.508;5.502;2023-07-02T13:32:18;2.00;;;1.20;;
78787;SDS011;68131;52.508;5.502;2023-07-02T13:34:50;3.83;;;1.20;;
78787;SDS011;68131;52.508;5.502;2023-07-02T13:37:19;3.08;;;1.30;;
78787;SDS011;68131;52.508;5.502;2023-07-02T13:39:49;2.88;;;1.50;;
78787;SDS011;68131;52.508;5.502;2023-07-02T13:42:18;1.60;;;1.00;;
78787;SDS011;68131;52.508;5.502;2023-07-02T13:44:47;2.10;;;0.82;;
78787;SDS011;68131;52.508;5.502;2023-07-02T13:47:19;2.67;;;1.10;;
78787;SDS011;68131;52.508;5.502;2023-07-02T13:49:50;1.83;;;0.85;;
78787;SDS011;68131;52.508;5.502;2023-07-02T13:52:20;2.28;;;1.13;;
78787;SDS011;68131;52.508;5.502;2023-07-02T13:54:49;3.05;;;1.20;;
78787;SDS011;68131;52.508;5.502;2023-07-02T13:57:21;2.47;;;1.20;;
78787;SDS011;68131;52.508;5.502;2023-07-02T13:59:53;3.22;;;1.50;;
78787;SDS011;68131;52.508;5.502;2023-07-02T14:02:23;6.82;;;1.92;;
78787;SDS011;68131;52.508;5.502;2023-07-02T14:04:52;3.33;;;1.17;;
78787;SDS011;68131;52.508;5.502;2023-07-02T14:07:22;4.78;;;2.22;;
78787;SDS011;68131;52.508;5.502;2023-07-02T14:09:51;2.50;;;1.30;;
78787;SDS011;68131;52.508;5.502;2023-07-02T14:12:21;2.33;;;0.98;;
78787;SDS011;68131;52.508;5.502;2023-07-02T14:14:52;3.65;;;1.80;;
78787;SDS011;68131;52.508;5.502;2023-07-02T14:17:23;4.20;;;1.45;;
78787;SDS011;68131;52.508;5.502;2023-07-02T14:19:55;3.60;;;1.50;;
78787;SDS011;68131;52.508;5.502;2023-07-02T14:22:24;5.72;;;1.85;;
78787;SDS011;68131;52.508;5.502;2023-07-02T14:24:53;3.40;;;1.30;;
78787;SDS011;68131;52.508;5.502;2023-07-02T14:27:23;3.55;;;1.20;;
78787;SDS011;68131;52.508;5.502;2023-07-02T14:29:56;3.25;;;1.40;;
78787;SDS011;68131;52.508;5.502;2023-07-02T14:32:26;3.03;;;1.13;;
78787;SDS011;68131;52.508;5.502;2023-07-02T14:34:55;3.42;;;1.65;;
78787;SDS011;68131;52.508;5.502;2023-07-02T14:37:26;2.42;;;1.05;;
78787;SDS011;68131;52.508;5.502;2023-07-02T14:39:55;1.98;;;1.20;;
78787;SDS011;68131;52.508;5.502;2023-07-02T14:42:24;3.83;;;1.20;;
78787;SDS011;68131;52.508;5.502;2023-07-02T14:44:56;3.28;;;1.40;;
78787;SDS011;68131;52.508;5.502;2023-07-02T14:47:25;2.42;;;1.25;;
78787;SDS011;68131;52.508;5.502;2023-07-02T14:49:54;4.03;;;1.80;;
78787;SDS011;68131;52.508;5.502;2023-07-02T14:52:23;4.03;;;1.20;;
78787;SDS011;68131;52.508;5.502;2023-07-02T14:54:54;2.60;;;1.20;;
78787;SDS011;68131;52.508;5.502;2023-07-02T14:57:25;4.55;;;1.10;;
78787;SDS011;68131;52.508;5.502;2023-07-02T14:59:56;1.30;;;0.95;;
78787;SDS011;68131;52.508;5.502;2023-07-02T15:02:25;3.65;;;1.40;;
78787;SDS011;68131;52.508;5.502;2023-07-02T15:04:55;2.75;;;1.55;;
78787;SDS011;68131;52.508;5.502;2023-07-02T15:07:28;3.05;;;1.42;;
78787;SDS011;68131;52.508;5.502;2023-07-02T15:09:57;2.22;;;1.15;;
78787;SDS011;68131;52.508;5.502;2023-07-02T15:12:26;3.22;;;1.48;;
78787;SDS011;68131;52.508;5.502;2023-07-02T15:14:58;4.03;;;1.20;;